createdAt,value
2019-05-05T00:00:07.477Z,37.20
2019-05-05T00:01:07.488Z,35.60
2019-05-05T00:02:07.485Z,39.00
2019-05-05T00:03:07.439Z,37.00
2019-05-05T00:04:07.432Z,42.10
2019-05-05T00:05:08.677Z,38.90
2019-05-05T00:06:07.404Z,44.50
2019-05-05T00:07:07.432Z,46.60
2019-05-05T00:08:07.404Z,45.20
2019-05-05T00:09:07.371Z,42.60
2019-05-05T00:10:07.377Z,45.90
2019-05-05T00:11:07.367Z,48.10
2019-05-05T00:12:07.387Z,40.30
2019-05-05T00:13:07.336Z,43.70
2019-05-05T00:14:07.334Z,47.50
2019-05-05T00:15:07.326Z,50.30
2019-05-05T00:16:07.293Z,54.50
2019-05-05T00:17:07.307Z,55.60
2019-05-05T00:18:07.273Z,50.60
2019-05-05T00:19:07.274Z,54.10
2019-05-05T00:20:07.300Z,51.30
2019-05-05T00:21:07.280Z,55.60
2019-05-05T00:22:07.243Z,52.40
2019-05-05T00:23:07.214Z,53.80
2019-05-05T00:24:07.205Z,48.10
2019-05-05T00:25:07.224Z,47.20
2019-05-05T00:26:07.214Z,41.90
2019-05-05T00:27:07.189Z,53.60
2019-05-05T00:28:07.159Z,53.80
2019-05-05T00:29:07.171Z,46.70
2019-05-05T00:30:07.177Z,52.30
2019-05-05T00:31:07.141Z,55.60
2019-05-05T00:32:07.148Z,56.50
2019-05-05T00:33:07.113Z,54.10
2019-05-05T00:34:07.113Z,52.00
2019-05-05T00:35:07.124Z,64.40
2019-05-05T00:36:07.801Z,66.50
2019-05-05T00:37:07.068Z,64.00
2019-05-05T00:38:07.081Z,65.30
2019-05-05T00:39:07.050Z,73.00
2019-05-05T00:40:07.031Z,66.10
2019-05-05T00:41:07.029Z,63.20
2019-05-05T00:42:07.013Z,61.60
2019-05-05T00:43:06.999Z,63.00
2019-05-05T00:44:07.014Z,65.80
2019-05-05T00:45:07.003Z,72.60
2019-05-05T00:46:06.971Z,72.80
2019-05-05T00:47:06.953Z,60.20
2019-05-05T00:48:06.959Z,57.50
2019-05-05T00:49:06.975Z,52.50
2019-05-05T00:50:06.954Z,56.90
2019-05-05T00:51:06.916Z,59.10
2019-05-05T00:52:06.966Z,54.10
2019-05-05T00:53:06.899Z,52.20
2019-05-05T00:54:06.876Z,47.50
2019-05-05T00:55:06.894Z,52.40
2019-05-05T00:56:06.889Z,54.80
2019-05-05T00:57:06.844Z,48.60
2019-05-05T00:58:06.862Z,48.60
2019-05-05T00:59:06.841Z,51.00
2019-05-05T01:00:06.835Z,51.70
2019-05-05T01:01:06.821Z,50.30
2019-05-05T01:02:06.821Z,56.80
2019-05-05T01:03:06.776Z,54.90
2019-05-05T01:04:06.793Z,54.80
2019-05-05T01:05:06.760Z,49.30
2019-05-05T01:06:06.757Z,49.30
2019-05-05T01:07:06.744Z,43.50
2019-05-05T01:08:06.777Z,48.40
2019-05-05T01:09:06.739Z,51.60
2019-05-05T01:10:06.716Z,56.70
2019-05-05T01:11:06.694Z,53.30
2019-05-05T01:12:06.711Z,53.60
2019-05-05T01:13:06.682Z,49.40
2019-05-05T01:14:06.676Z,52.20
2019-05-05T01:15:06.651Z,56.30
2019-05-05T01:16:06.640Z,51.40
2019-05-05T01:17:06.625Z,52.00
2019-05-05T01:18:06.614Z,56.20
2019-05-05T01:19:06.636Z,57.70
2019-05-05T01:20:06.912Z,63.20
2019-05-05T01:21:06.580Z,53.50
2019-05-05T01:22:06.576Z,53.10
2019-05-05T01:23:06.568Z,56.50
2019-05-05T01:24:06.552Z,68.60
2019-05-05T01:25:06.539Z,75.70
2019-05-05T01:26:06.556Z,88.40
2019-05-05T01:27:06.511Z,98.80
2019-05-05T01:28:06.504Z,114.00
2019-05-05T01:29:06.495Z,115.60
2019-05-05T01:30:06.477Z,121.00
2019-05-05T01:31:06.493Z,179.60
2019-05-05T01:32:06.486Z,162.30
2019-05-05T01:33:06.447Z,172.00
2019-05-05T01:34:06.433Z,241.60
2019-05-05T01:35:06.428Z,246.40
2019-05-05T01:36:06.433Z,270.20
2019-05-05T01:37:06.441Z,403.30
2019-05-05T01:38:06.418Z,400.30
2019-05-05T01:39:06.388Z,331.90
2019-05-05T01:40:06.395Z,479.50
2019-05-05T01:41:06.409Z,468.30
2019-05-05T01:42:06.366Z,433.70
2019-05-05T01:43:06.337Z,504.90
2019-05-05T01:44:06.346Z,443.80
2019-05-05T01:45:06.311Z,563.80
2019-05-05T01:46:06.308Z,461.30
2019-05-05T01:47:06.303Z,587.20
2019-05-05T01:48:06.280Z,295.50
2019-05-05T01:49:06.268Z,441.50
2019-05-05T01:50:17.219Z,608.00
2019-05-05T01:51:07.243Z,536.90
2019-05-05T01:52:06.248Z,516.90
2019-05-05T01:53:06.232Z,349.10
2019-05-05T01:54:06.216Z,457.40
2019-05-05T01:55:06.239Z,590.60
2019-05-05T01:56:06.219Z,436.50
2019-05-05T01:57:06.183Z,611.50
2019-05-05T01:58:06.185Z,635.00
2019-05-05T01:59:06.177Z,627.10
2019-05-05T02:00:06.187Z,685.50
2019-05-05T02:01:06.163Z,507.80
2019-05-05T02:02:06.159Z,784.50
2019-05-05T02:03:06.115Z,463.40
2019-05-05T02:04:06.127Z,713.80
2019-05-05T02:05:06.104Z,577.50
2019-05-05T02:06:06.089Z,504.10
2019-05-05T02:07:06.089Z,347.50
2019-05-05T02:08:06.087Z,481.70
2019-05-05T02:09:06.051Z,394.30
2019-05-05T02:10:06.274Z,244.30
2019-05-05T02:11:06.031Z,167.10
2019-05-05T02:12:06.014Z,171.40
2019-05-05T02:13:06.001Z,197.20
2019-05-05T02:14:06.018Z,134.20
2019-05-05T02:15:05.980Z,205.10
2019-05-05T02:16:05.970Z,104.00
2019-05-05T02:17:05.960Z,105.80
2019-05-05T02:18:05.946Z,85.90
2019-05-05T02:19:05.933Z,76.30
2019-05-05T02:20:05.944Z,85.80
2019-05-05T02:21:05.926Z,77.40
2019-05-05T02:22:05.922Z,69.30
2019-05-05T02:23:05.894Z,64.70
2019-05-05T02:24:05.915Z,65.10
2019-05-05T02:25:05.904Z,68.40
2019-05-05T02:26:05.884Z,70.40
2019-05-05T02:27:05.850Z,64.60
2019-05-05T02:28:05.836Z,72.80
2019-05-05T02:29:05.847Z,68.10
2019-05-05T02:30:06.473Z,62.00
2019-05-05T02:31:05.862Z,56.50
2019-05-05T02:32:06.555Z,50.80
2019-05-05T02:33:06.460Z,54.00
2019-05-05T02:34:05.781Z,47.50
2019-05-05T02:35:06.588Z,52.70
2019-05-05T02:36:05.888Z,52.50
2019-05-05T02:37:05.753Z,46.50
2019-05-05T02:38:06.613Z,49.70
2019-05-05T02:39:05.750Z,47.10
2019-05-05T02:40:07.632Z,44.60
2019-05-05T02:41:05.703Z,44.00
2019-05-05T02:42:05.991Z,43.50
2019-05-05T02:43:05.712Z,42.60
2019-05-05T02:44:05.681Z,41.40
2019-05-05T02:45:05.841Z,41.60
2019-05-05T02:46:05.853Z,38.60
2019-05-05T02:47:05.630Z,37.20
2019-05-05T02:48:06.166Z,39.30
2019-05-05T02:49:05.756Z,38.40
2019-05-05T02:50:05.644Z,43.40
2019-05-05T02:51:06.909Z,39.50
2019-05-05T02:52:05.576Z,37.90
2019-05-05T02:53:05.578Z,38.10
2019-05-05T02:54:05.556Z,39.60
2019-05-05T02:55:05.538Z,41.20
2019-05-05T02:56:05.575Z,40.70
2019-05-05T02:57:05.517Z,40.60
2019-05-05T02:58:05.537Z,42.40
2019-05-05T02:59:05.502Z,48.50
2019-05-05T03:00:05.499Z,44.50
2019-05-05T03:01:05.493Z,44.30
2019-05-05T03:02:05.484Z,48.40
2019-05-05T03:03:05.477Z,41.90
2019-05-05T03:04:05.461Z,52.20
2019-05-05T03:05:05.454Z,83.40
2019-05-05T03:06:05.422Z,112.50
2019-05-05T03:07:05.424Z,147.60
2019-05-05T03:08:05.457Z,118.50
2019-05-05T03:09:05.386Z,108.30
2019-05-05T03:10:05.401Z,76.10
2019-05-05T03:11:05.409Z,101.10
2019-05-05T03:12:05.365Z,95.50
2019-05-05T03:13:05.343Z,90.30
2019-05-05T03:14:05.351Z,71.80
2019-05-05T03:15:05.325Z,75.70
2019-05-05T03:16:05.303Z,96.80
2019-05-05T03:17:05.298Z,83.00
2019-05-05T03:18:05.311Z,126.80
2019-05-05T03:19:05.288Z,80.10
2019-05-05T03:20:05.280Z,76.40
2019-05-05T03:21:07.488Z,66.20
2019-05-05T03:22:05.243Z,67.40
2019-05-05T03:23:05.230Z,64.30
2019-05-05T03:24:05.214Z,58.90
2019-05-05T03:25:05.227Z,65.80
2019-05-05T03:26:05.210Z,59.50
2019-05-05T03:27:05.192Z,53.20
2019-05-05T03:28:05.175Z,61.10
2019-05-05T03:29:05.166Z,60.30
2019-05-05T03:30:05.351Z,51.40
2019-05-05T03:31:05.286Z,56.20
2019-05-05T03:32:05.864Z,54.30
2019-05-05T03:33:05.696Z,61.80
2019-05-05T03:34:06.152Z,52.00
2019-05-05T03:35:05.111Z,48.40
2019-05-05T03:36:05.134Z,47.70
2019-05-05T03:37:05.074Z,50.30
2019-05-05T03:38:05.086Z,49.20
2019-05-05T03:39:05.200Z,55.40
2019-05-05T03:40:05.056Z,52.30
2019-05-05T03:41:05.043Z,46.40
2019-05-05T03:42:05.017Z,50.80
2019-05-05T03:43:05.021Z,43.10
2019-05-05T03:44:05.023Z,43.00
2019-05-05T03:45:04.993Z,40.40
2019-05-05T03:46:04.979Z,38.00
2019-05-05T03:47:04.987Z,36.10
2019-05-05T03:48:04.953Z,35.20
2019-05-05T03:49:04.986Z,33.70
2019-05-05T03:50:04.958Z,32.70
2019-05-05T03:51:16.081Z,33.90
2019-05-05T03:52:05.921Z,33.10
2019-05-05T03:53:05.048Z,29.50
2019-05-05T03:54:04.888Z,27.70
2019-05-05T03:55:04.885Z,29.70
2019-05-05T03:56:04.910Z,32.40
2019-05-05T03:57:04.882Z,54.10
2019-05-05T03:58:04.855Z,40.90
2019-05-05T03:59:05.059Z,123.10
2019-05-05T04:00:04.817Z,115.00
2019-05-05T04:01:04.844Z,97.30
2019-05-05T04:02:04.849Z,83.60
2019-05-05T04:03:04.800Z,120.90
2019-05-05T04:04:04.790Z,69.90
2019-05-05T04:05:04.793Z,71.00
2019-05-05T04:06:04.760Z,60.40
2019-05-05T04:07:04.960Z,63.50
2019-05-05T04:08:04.783Z,51.30
2019-05-05T04:09:04.720Z,60.90
2019-05-05T04:10:04.726Z,57.60
2019-05-05T04:11:04.713Z,62.60
2019-05-05T04:12:04.717Z,52.80
2019-05-05T04:13:04.820Z,58.90
2019-05-05T04:14:04.700Z,52.90
2019-05-05T04:15:04.692Z,59.00
2019-05-05T04:16:04.681Z,52.90
2019-05-05T04:17:04.647Z,57.80
2019-05-05T04:18:04.641Z,58.20
2019-05-05T04:19:04.607Z,55.60
2019-05-05T04:20:04.630Z,68.20
2019-05-05T04:21:04.596Z,61.50
2019-05-05T04:22:04.609Z,62.60
2019-05-05T04:23:04.581Z,59.80
2019-05-05T04:24:04.562Z,52.40
2019-05-05T04:25:04.724Z,55.70
2019-05-05T04:26:04.552Z,58.50
2019-05-05T04:27:04.530Z,65.10
2019-05-05T04:28:04.618Z,61.40
2019-05-05T04:29:05.283Z,54.90
2019-05-05T04:30:04.510Z,59.40
2019-05-05T04:31:04.490Z,58.20
2019-05-05T04:32:04.758Z,59.40
2019-05-05T04:33:04.463Z,58.70
2019-05-05T04:34:04.444Z,63.10
2019-05-05T04:35:04.434Z,61.00
2019-05-05T04:36:04.459Z,60.60
2019-05-05T04:37:04.428Z,59.90
2019-05-05T04:38:04.876Z,67.40
2019-05-05T04:39:04.417Z,72.00
2019-05-05T04:40:04.416Z,82.00
2019-05-05T04:41:04.371Z,90.40
2019-05-05T04:42:04.860Z,81.80
2019-05-05T04:43:04.347Z,82.80
2019-05-05T04:44:04.385Z,90.70
2019-05-05T04:45:04.344Z,82.20
2019-05-05T04:46:04.581Z,100.10
2019-05-05T04:47:04.302Z,89.80
2019-05-05T04:48:04.398Z,103.50
2019-05-05T04:49:04.283Z,117.90
2019-05-05T04:50:04.423Z,98.00
2019-05-05T04:51:04.760Z,97.30
2019-05-05T04:52:04.247Z,98.00
2019-05-05T04:53:04.578Z,96.20
2019-05-05T04:54:04.224Z,97.50
2019-05-05T04:55:04.235Z,86.50
2019-05-05T04:56:04.388Z,87.10
2019-05-05T04:57:04.593Z,88.90
2019-05-05T04:58:04.677Z,98.80
2019-05-05T04:59:04.227Z,101.10
2019-05-05T05:00:04.260Z,99.00
2019-05-05T05:01:04.736Z,88.70
2019-05-05T05:02:04.192Z,80.00
2019-05-05T05:03:04.546Z,77.90
2019-05-05T05:04:04.114Z,81.00
2019-05-05T05:05:04.211Z,75.40
2019-05-05T05:06:04.233Z,70.30
2019-05-05T05:07:04.747Z,62.90
2019-05-05T05:08:04.098Z,60.80
2019-05-05T05:09:04.148Z,56.10
2019-05-05T05:10:04.569Z,58.70
2019-05-05T05:11:04.067Z,54.20
2019-05-05T05:12:04.154Z,51.10
2019-05-05T05:13:04.630Z,48.50
2019-05-05T05:14:04.027Z,44.60
2019-05-05T05:15:04.413Z,48.40
2019-05-05T05:16:04.592Z,49.20
2019-05-05T05:17:04.023Z,40.70
2019-05-05T05:18:04.174Z,38.00
2019-05-05T05:19:04.371Z,37.90
2019-05-05T05:20:03.960Z,36.90
2019-05-05T05:21:04.117Z,37.30
2019-05-05T05:22:04.981Z,36.80
2019-05-05T05:23:03.929Z,35.40
2019-05-05T05:24:04.107Z,36.60
2019-05-05T05:25:04.535Z,36.40
2019-05-05T05:26:05.105Z,34.10
2019-05-05T05:27:05.011Z,32.80
2019-05-05T05:28:04.322Z,31.10
2019-05-05T05:29:04.551Z,34.60
2019-05-05T05:30:04.671Z,32.20
2019-05-05T05:31:04.037Z,30.10
2019-05-05T05:32:04.290Z,29.30
2019-05-05T05:33:04.438Z,30.50
2019-05-05T05:34:04.399Z,29.40
2019-05-05T05:35:03.868Z,30.40
2019-05-05T05:36:04.153Z,30.20
2019-05-05T05:37:04.330Z,29.00
2019-05-05T05:38:04.615Z,27.50
2019-05-05T05:39:03.726Z,27.00
2019-05-05T05:40:03.990Z,25.70
2019-05-05T05:41:04.265Z,27.40
2019-05-05T05:42:04.521Z,24.90
2019-05-05T05:43:04.668Z,27.90
2019-05-05T05:44:03.729Z,23.60
2019-05-05T05:45:04.152Z,25.90
2019-05-05T05:46:04.403Z,21.90
2019-05-05T05:47:03.744Z,21.30
2019-05-05T05:48:04.164Z,21.30
2019-05-05T05:49:04.509Z,21.00
2019-05-05T05:50:04.119Z,24.20
2019-05-05T05:51:04.218Z,20.90
2019-05-05T05:52:13.389Z,18.30
2019-05-05T05:53:04.846Z,18.50
2019-05-05T05:54:03.800Z,19.20
2019-05-05T05:55:04.164Z,18.90
2019-05-05T05:56:04.358Z,17.80
2019-05-05T05:57:04.339Z,19.90
2019-05-05T05:58:04.845Z,22.50
2019-05-05T05:59:03.711Z,19.50
2019-05-05T06:00:04.099Z,20.10
2019-05-05T06:01:04.282Z,17.60
2019-05-05T06:02:09.875Z,19.20
2019-05-05T06:03:04.468Z,19.00
2019-05-05T06:04:04.076Z,17.10
2019-05-05T06:05:04.366Z,19.60
2019-05-05T06:06:04.701Z,19.80
2019-05-05T06:07:04.094Z,18.40
2019-05-05T06:08:04.782Z,17.60
2019-05-05T06:09:04.264Z,16.00
2019-05-05T06:10:03.822Z,17.50
2019-05-05T06:11:04.412Z,18.20
2019-05-05T06:12:03.647Z,17.90
2019-05-05T06:13:04.131Z,18.60
2019-05-05T06:14:04.001Z,16.20
2019-05-05T06:15:03.832Z,18.20
2019-05-05T06:16:04.260Z,14.30
2019-05-05T06:17:04.263Z,17.20
2019-05-05T06:18:04.656Z,18.00
2019-05-05T06:19:03.751Z,16.00
2019-05-05T06:20:04.036Z,16.50
2019-05-05T06:21:04.493Z,20.30
2019-05-05T06:22:03.624Z,20.00
2019-05-05T06:23:04.084Z,18.40
2019-05-05T06:24:04.524Z,18.40
2019-05-05T06:25:06.528Z,17.20
2019-05-05T06:26:06.820Z,19.70
2019-05-05T06:27:03.726Z,18.80
2019-05-05T06:28:04.306Z,20.70
2019-05-05T06:29:04.370Z,17.30
2019-05-05T06:30:04.530Z,14.50
2019-05-05T06:31:04.850Z,14.60
2019-05-05T06:32:03.993Z,16.10
2019-05-05T06:33:04.899Z,15.00
2019-05-05T06:34:03.684Z,14.60
2019-05-05T06:35:03.664Z,14.20
2019-05-05T06:36:03.805Z,14.40
2019-05-05T06:37:04.252Z,13.90
2019-05-05T06:38:04.711Z,15.40
2019-05-05T06:39:04.579Z,18.20
2019-05-05T06:40:03.782Z,15.00
2019-05-05T06:41:04.211Z,15.00
2019-05-05T06:42:04.508Z,12.40
2019-05-05T06:43:04.474Z,12.90
2019-05-05T06:44:03.756Z,12.00
2019-05-05T06:45:04.163Z,13.30
2019-05-05T06:46:04.054Z,11.70
2019-05-05T06:47:04.646Z,12.30
2019-05-05T06:48:04.310Z,14.20
2019-05-05T06:49:04.335Z,13.80
2019-05-05T06:50:03.681Z,14.90
2019-05-05T06:51:03.985Z,13.40
2019-05-05T06:52:04.026Z,12.90
2019-05-05T06:53:04.287Z,15.00
2019-05-05T06:54:04.662Z,12.60
2019-05-05T06:55:03.752Z,12.10
2019-05-05T06:56:04.043Z,12.50
2019-05-05T06:57:04.523Z,12.90
2019-05-05T06:58:04.582Z,12.10
2019-05-05T06:59:04.452Z,12.10
2019-05-05T07:00:03.653Z,15.30
2019-05-05T07:01:03.607Z,13.70
2019-05-05T07:02:04.234Z,13.30
2019-05-05T07:03:05.830Z,13.30
2019-05-05T07:04:03.467Z,13.80
2019-05-05T07:05:04.041Z,12.90
2019-05-05T07:06:04.232Z,13.10
2019-05-05T07:07:04.909Z,13.30
2019-05-05T07:08:04.429Z,14.70
2019-05-05T07:09:02.730Z,11.80
2019-05-05T07:10:03.753Z,12.10
2019-05-05T07:11:04.109Z,13.80
2019-05-05T07:12:04.553Z,14.10
2019-05-05T07:13:04.830Z,14.30
2019-05-05T07:14:03.716Z,12.00
2019-05-05T07:15:04.194Z,14.00
2019-05-05T07:16:04.735Z,13.20
2019-05-05T07:17:04.913Z,12.10
2019-05-05T07:18:03.699Z,18.50
2019-05-05T07:19:04.377Z,15.90
2019-05-05T07:20:04.338Z,15.60
2019-05-05T07:21:03.626Z,18.30
2019-05-05T07:22:04.074Z,14.70
2019-05-05T07:23:05.269Z,14.80
2019-05-05T07:24:03.994Z,14.20
2019-05-05T07:25:04.617Z,14.90
2019-05-05T07:26:04.189Z,12.70
2019-05-05T07:27:04.559Z,16.70
2019-05-05T07:28:04.269Z,14.80
2019-05-05T07:29:04.478Z,15.50
2019-05-05T07:30:04.594Z,16.10
2019-05-05T07:31:04.441Z,15.70
2019-05-05T07:32:03.974Z,17.40
2019-05-05T07:33:04.462Z,20.80
2019-05-05T07:34:04.688Z,19.30
2019-05-05T07:35:04.119Z,21.70
2019-05-05T07:36:05.855Z,19.50
2019-05-05T07:37:03.833Z,21.10
2019-05-05T07:38:04.372Z,24.30
2019-05-05T07:39:03.803Z,22.20
2019-05-05T07:40:04.203Z,23.50
2019-05-05T07:41:03.651Z,23.70
2019-05-05T07:42:04.429Z,27.90
2019-05-05T07:43:04.362Z,27.40
2019-05-05T07:44:02.378Z,30.10
2019-05-05T07:45:05.443Z,28.60
2019-05-05T07:46:04.451Z,26.40
2019-05-05T07:47:03.662Z,26.00
2019-05-05T07:48:04.639Z,26.10
2019-05-05T07:49:03.864Z,28.30
2019-05-05T07:50:04.138Z,26.60
2019-05-05T07:51:05.051Z,32.90
2019-05-05T07:52:04.054Z,31.50
2019-05-05T07:53:12.275Z,30.70
2019-05-05T07:54:03.919Z,28.60
2019-05-05T07:55:03.614Z,27.70
2019-05-05T07:56:03.941Z,31.80
2019-05-05T07:57:04.158Z,31.50
2019-05-05T07:58:04.190Z,31.60
2019-05-05T07:59:03.822Z,31.60
2019-05-05T08:00:02.191Z,31.50
2019-05-05T08:01:02.184Z,33.00
2019-05-05T08:02:03.989Z,33.90
2019-05-05T08:03:03.720Z,35.30
2019-05-05T08:04:04.295Z,35.50
2019-05-05T08:05:02.141Z,41.00
2019-05-05T08:06:03.924Z,34.80
2019-05-05T08:07:04.017Z,35.60
2019-05-05T08:08:04.451Z,36.20
2019-05-05T08:09:03.945Z,35.80
2019-05-05T08:10:04.388Z,35.00
2019-05-05T08:11:02.080Z,35.60
2019-05-05T08:12:04.212Z,44.90
2019-05-05T08:13:02.053Z,40.40
2019-05-05T08:14:04.020Z,42.70
2019-05-05T08:15:04.154Z,42.10
2019-05-05T08:16:03.812Z,38.90
2019-05-05T08:17:03.607Z,40.70
2019-05-05T08:18:01.995Z,43.90
2019-05-05T08:19:03.836Z,41.40
2019-05-05T08:20:03.962Z,43.10
2019-05-05T08:21:04.081Z,43.10
2019-05-05T08:22:03.687Z,45.90
2019-05-05T08:23:04.128Z,44.50
2019-05-05T08:24:01.962Z,46.80
2019-05-05T08:25:03.884Z,45.70
2019-05-05T08:26:01.929Z,44.30
2019-05-05T08:27:04.371Z,48.30
2019-05-05T08:28:04.154Z,46.80
2019-05-05T08:29:01.895Z,42.40
2019-05-05T08:30:05.008Z,46.40
2019-05-05T08:31:03.813Z,45.20
2019-05-05T08:32:04.231Z,44.00
2019-05-05T08:33:01.841Z,43.10
2019-05-05T08:34:03.858Z,44.30
2019-05-05T08:35:04.206Z,42.90
2019-05-05T08:36:01.811Z,42.40
2019-05-05T08:37:03.764Z,45.20
2019-05-05T08:38:01.848Z,44.30
2019-05-05T08:39:03.634Z,44.00
2019-05-05T08:40:01.771Z,43.60
2019-05-05T08:41:01.751Z,43.80
2019-05-05T08:42:04.121Z,45.80
2019-05-05T08:43:01.742Z,41.60
2019-05-05T08:44:03.509Z,43.10
2019-05-05T08:45:01.707Z,45.40
2019-05-05T08:46:01.695Z,45.40
2019-05-05T08:47:01.689Z,44.50
2019-05-05T08:48:01.687Z,44.50
2019-05-05T08:49:01.677Z,45.30
2019-05-05T08:50:01.672Z,47.90
2019-05-05T08:51:01.638Z,45.20
2019-05-05T08:52:03.865Z,43.70
2019-05-05T08:53:01.629Z,45.00
2019-05-05T08:54:03.768Z,42.90
2019-05-05T08:55:01.594Z,44.90
2019-05-05T08:56:01.599Z,43.30
2019-05-05T08:57:01.577Z,43.60
2019-05-05T08:58:01.564Z,44.10
2019-05-05T08:59:03.546Z,43.70
2019-05-05T09:00:01.536Z,44.60
2019-05-05T09:01:01.534Z,45.50
2019-05-05T09:02:01.541Z,43.10
2019-05-05T09:03:03.587Z,41.20
2019-05-05T09:04:01.495Z,39.50
2019-05-05T09:05:01.484Z,40.10
2019-05-05T09:06:01.470Z,42.00
2019-05-05T09:07:01.456Z,40.10
2019-05-05T09:08:01.479Z,40.40
2019-05-05T09:09:03.690Z,37.80
2019-05-05T09:10:03.740Z,38.60
2019-05-05T09:11:01.411Z,37.60
2019-05-05T09:12:01.396Z,37.60
2019-05-05T09:13:03.673Z,37.40
2019-05-05T09:14:01.393Z,37.30
2019-05-05T09:15:01.363Z,38.40
2019-05-05T09:16:03.580Z,38.80
2019-05-05T09:17:01.343Z,38.40
2019-05-05T09:18:01.326Z,38.20
2019-05-05T09:19:01.318Z,38.50
2019-05-05T09:20:01.334Z,34.30
2019-05-05T09:21:01.303Z,36.50
2019-05-05T09:22:01.284Z,35.30
2019-05-05T09:23:01.265Z,35.30
2019-05-05T09:24:03.283Z,35.40
2019-05-05T09:25:01.247Z,34.20
2019-05-05T09:26:01.247Z,33.50
2019-05-05T09:27:03.477Z,31.00
2019-05-05T09:28:03.143Z,32.50
2019-05-05T09:29:01.195Z,30.40
2019-05-05T09:30:01.182Z,31.20
2019-05-05T09:31:01.191Z,30.30
2019-05-05T09:32:01.185Z,33.20
2019-05-05T09:33:01.157Z,30.00
2019-05-05T09:34:01.140Z,30.10
2019-05-05T09:35:01.162Z,35.20
2019-05-05T09:36:01.128Z,29.70
2019-05-05T09:37:01.111Z,28.40
2019-05-05T09:38:01.111Z,26.80
2019-05-05T09:39:01.088Z,28.10
2019-05-05T09:40:01.072Z,30.50
2019-05-05T09:41:01.070Z,27.60
2019-05-05T09:42:01.049Z,28.00
2019-05-05T09:43:01.043Z,31.00
2019-05-05T09:44:01.071Z,27.20
2019-05-05T09:45:01.015Z,29.80
2019-05-05T09:46:01.010Z,26.10
2019-05-05T09:47:01.060Z,29.90
2019-05-05T09:48:00.984Z,29.50
2019-05-05T09:49:00.973Z,27.90
2019-05-05T09:50:00.979Z,27.20
2019-05-05T09:51:00.947Z,28.80
2019-05-05T09:52:00.942Z,25.30
2019-05-05T09:53:00.935Z,25.50
2019-05-05T09:54:11.940Z,24.70
2019-05-05T09:55:03.811Z,25.60
2019-05-05T09:56:00.895Z,25.70
2019-05-05T09:57:00.946Z,29.40
2019-05-05T09:58:00.872Z,29.40
2019-05-05T09:59:00.862Z,24.20
2019-05-05T10:00:00.854Z,26.40
2019-05-05T10:01:00.867Z,26.20
2019-05-05T10:02:00.830Z,27.60
2019-05-05T10:03:00.819Z,24.60
2019-05-05T10:04:00.802Z,25.10
2019-05-05T10:05:00.793Z,28.50
2019-05-05T10:06:00.786Z,27.40
2019-05-05T10:07:00.791Z,25.40
2019-05-05T10:08:00.758Z,24.80
2019-05-05T10:09:00.748Z,28.20
2019-05-05T10:10:00.738Z,26.80
2019-05-05T10:11:00.731Z,32.20
2019-05-05T10:12:00.720Z,28.60
2019-05-05T10:13:00.729Z,27.70
2019-05-05T10:14:00.691Z,28.60
2019-05-05T10:15:00.681Z,28.50
2019-05-05T10:16:00.669Z,26.10
2019-05-05T10:17:00.659Z,27.20
2019-05-05T10:18:00.646Z,25.70
2019-05-05T10:19:00.657Z,26.10
2019-05-05T10:20:00.634Z,27.00
2019-05-05T10:21:00.612Z,27.20
2019-05-05T10:22:00.600Z,28.30
2019-05-05T10:23:00.588Z,28.80
2019-05-05T10:24:00.595Z,26.80
2019-05-05T10:25:00.587Z,24.70
2019-05-05T10:26:00.557Z,26.20
2019-05-05T10:27:00.545Z,26.40
2019-05-05T10:28:00.534Z,24.80
2019-05-05T10:29:01.255Z,23.40
2019-05-05T10:30:00.512Z,19.90
2019-05-05T10:31:00.527Z,19.60
2019-05-05T10:32:00.491Z,22.10
2019-05-05T10:33:00.479Z,21.80
2019-05-05T10:34:00.469Z,23.10
2019-05-05T10:35:00.454Z,20.10
2019-05-05T10:36:00.439Z,18.90
2019-05-05T10:37:00.455Z,22.00
2019-05-05T10:38:00.421Z,17.80
2019-05-05T10:39:00.405Z,19.20
2019-05-05T10:40:00.393Z,20.50
2019-05-05T10:41:00.379Z,19.60
2019-05-05T10:42:00.381Z,17.10
2019-05-05T10:43:00.387Z,19.90
2019-05-05T10:44:00.348Z,22.10
2019-05-05T10:45:00.332Z,19.50
2019-05-05T10:46:00.322Z,19.50
2019-05-05T10:47:00.326Z,16.80
2019-05-05T10:48:00.327Z,21.50
2019-05-05T10:49:00.303Z,19.30
2019-05-05T10:50:00.276Z,19.00
2019-05-05T10:51:00.269Z,19.40
2019-05-05T10:52:00.255Z,22.40
2019-05-05T10:53:00.243Z,21.40
2019-05-05T10:54:00.230Z,21.40
2019-05-05T10:55:00.244Z,21.90
2019-05-05T10:56:00.235Z,20.00
2019-05-05T10:57:00.196Z,19.80
2019-05-05T10:58:00.183Z,18.70
2019-05-05T10:59:00.167Z,16.30
2019-05-05T11:00:10.079Z,17.00
2019-05-05T11:01:01.163Z,16.70
2019-05-05T11:02:00.145Z,14.70
2019-05-05T11:03:00.134Z,15.40
2019-05-05T11:04:00.117Z,16.30
2019-05-05T11:05:00.095Z,16.00
2019-05-05T11:06:00.092Z,15.80
2019-05-05T11:07:00.099Z,13.10
2019-05-05T11:08:00.057Z,14.50
2019-05-05T11:09:00.053Z,17.00
2019-05-05T11:10:00.038Z,17.00
2019-05-05T11:11:00.043Z,15.60
2019-05-05T11:12:00.019Z,18.20
2019-05-05T11:13:00.060Z,13.90
2019-05-05T11:13:59.996Z,19.30
2019-05-05T11:14:59.978Z,15.70
2019-05-05T11:15:59.989Z,13.50
2019-05-05T11:16:59.961Z,18.10
2019-05-05T11:17:59.956Z,19.20
2019-05-05T11:18:59.951Z,15.10
2019-05-05T11:19:59.944Z,20.10
2019-05-05T11:20:59.957Z,18.30
2019-05-05T11:21:59.902Z,19.40
2019-05-05T11:22:59.888Z,19.70
2019-05-05T11:23:59.879Z,19.80
2019-05-05T11:25:01.183Z,20.10
2019-05-05T11:25:59.879Z,16.50
2019-05-05T11:26:59.871Z,18.70
2019-05-05T11:27:59.834Z,19.70
2019-05-05T11:28:59.834Z,17.80
2019-05-05T11:29:59.808Z,19.00
2019-05-05T11:30:59.845Z,20.40
2019-05-05T11:31:59.787Z,15.20
2019-05-05T11:32:59.779Z,15.90
2019-05-05T11:33:59.767Z,16.40
2019-05-05T11:34:59.755Z,14.30
2019-05-05T11:35:59.745Z,18.80
2019-05-05T11:36:59.759Z,18.70
2019-05-05T11:37:59.720Z,15.60
2019-05-05T11:38:59.707Z,18.30
2019-05-05T11:39:59.699Z,16.00
2019-05-05T11:40:59.692Z,18.60
2019-05-05T11:41:59.685Z,18.80
2019-05-05T11:42:59.680Z,16.70
2019-05-05T11:43:59.659Z,19.40
2019-05-05T11:44:59.643Z,16.60
2019-05-05T11:45:59.648Z,16.20
2019-05-05T11:46:59.627Z,15.30
2019-05-05T11:47:59.613Z,17.40
2019-05-05T11:48:59.630Z,12.90
2019-05-05T11:49:59.605Z,15.00
2019-05-05T11:50:59.576Z,18.00
2019-05-05T11:51:59.569Z,18.50
2019-05-05T11:52:59.553Z,16.20
2019-05-05T11:53:59.548Z,16.90
2019-05-05T11:55:09.686Z,18.10
2019-05-05T11:56:00.524Z,18.40
2019-05-05T11:56:59.509Z,16.40
2019-05-05T11:57:59.498Z,19.40
2019-05-05T11:58:59.487Z,15.80
2019-05-05T11:59:59.474Z,15.20
2019-05-05T12:00:59.481Z,12.70
2019-05-05T12:01:59.467Z,14.60
2019-05-05T12:02:59.439Z,14.00
2019-05-05T12:03:59.431Z,13.40
2019-05-05T12:04:59.427Z,13.30
2019-05-05T12:05:59.405Z,15.30
2019-05-05T12:06:59.409Z,14.30
2019-05-05T12:07:59.390Z,15.70
2019-05-05T12:08:59.383Z,16.80
2019-05-05T12:09:59.362Z,15.40
2019-05-05T12:10:59.361Z,14.80
2019-05-05T12:11:59.338Z,15.60
2019-05-05T12:12:59.344Z,18.40
2019-05-05T12:13:59.318Z,13.80
2019-05-05T12:14:59.311Z,16.10
2019-05-05T12:15:59.296Z,15.10
2019-05-05T12:16:59.281Z,14.20
2019-05-05T12:17:59.281Z,13.50
2019-05-05T12:18:59.280Z,14.50
2019-05-05T12:19:59.268Z,17.50
2019-05-05T12:20:59.234Z,14.00
2019-05-05T12:21:59.222Z,12.10
2019-05-05T12:22:59.256Z,11.70
2019-05-05T12:23:59.210Z,13.60
2019-05-05T12:24:59.205Z,13.40
2019-05-05T12:25:59.183Z,12.30
2019-05-05T12:26:59.164Z,13.30
2019-05-05T12:27:59.159Z,13.30
2019-05-05T12:28:59.143Z,11.70
2019-05-05T12:29:59.132Z,11.80
2019-05-05T12:30:59.138Z,12.70
2019-05-05T12:31:59.104Z,10.90
2019-05-05T12:32:59.096Z,10.00
2019-05-05T12:33:59.090Z,12.50
2019-05-05T12:34:59.068Z,10.70
2019-05-05T12:35:59.058Z,9.40
2019-05-05T12:36:59.067Z,9.20
2019-05-05T12:37:59.035Z,11.40
2019-05-05T12:38:59.028Z,8.40
2019-05-05T12:39:59.014Z,8.20
2019-05-05T12:40:59.003Z,10.20
2019-05-05T12:41:59.005Z,9.80
2019-05-05T12:42:59.002Z,8.40
2019-05-05T12:43:58.968Z,8.30
2019-05-05T12:44:58.956Z,10.00
2019-05-05T12:45:58.940Z,8.10
2019-05-05T12:46:58.930Z,8.50
2019-05-05T12:47:58.929Z,8.30
2019-05-05T12:48:58.928Z,9.00
2019-05-05T12:49:58.897Z,9.20
2019-05-05T12:50:58.887Z,9.30